sensor_id;sensor_type;location;lat;lon;timestamp;P1;durP1;ratioP1;P2;durP2;ratioP2
4547;SDS011;2286;51.570;7.090;2023-04-25T00:02:00;13.77;;;6.40;;
4547;SDS011;2286;51.570;7.090;2023-04-25T00:04:29;16.50;;;8.23;;
4547;SDS011;2286;51.570;7.090;2023-04-25T00:06:58;12.03;;;5.90;;
4547;SDS011;2286;51.570;7.090;2023-04-25T00:09:26;10.77;;;6.97;;
4547;SDS011;2286;51.570;7.090;2023-04-25T00:11:53;10.50;;;7.10;;
4547;SDS011;2286;51.570;7.090;2023-04-25T00:14:20;11.33;;;5.87;;
4547;SDS011;2286;51.570;7.090;2023-04-25T00:16:47;6.13;;;5.10;;
4547;SDS011;2286;51.570;7.090;2023-04-25T00:19:16;13.87;;;7.20;;
4547;SDS011;2286;51.570;7.090;2023-04-25T00:21:45;11.93;;;5.77;;
4547;SDS011;2286;51.570;7.090;2023-04-25T00:24:11;10.80;;;6.07;;
4547;SDS011;2286;51.570;7.090;2023-04-25T00:26:39;9.53;;;6.20;;
4547;SDS011;2286;51.570;7.090;2023-04-25T00:29:06;12.50;;;5.90;;
4547;SDS011;2286;51.570;7.090;2023-04-25T00:31:32;7.13;;;6.10;;
4547;SDS011;2286;51.570;7.090;2023-04-25T00:33:59;9.10;;;6.20;;
4547;SDS011;2286;51.570;7.090;2023-04-25T00:36:26;9.30;;;5.93;;
4547;SDS011;2286;51.570;7.090;2023-04-25T00:38:55;14.13;;;6.57;;
4547;SDS011;2286;51.570;7.090;2023-04-25T00:41:22;7.97;;;6.43;;
4547;SDS011;2286;51.570;7.090;2023-04-25T00:43:50;11.77;;;5.97;;
4547;SDS011;2286;51.570;7.090;2023-04-25T00:46:18;8.50;;;5.20;;
4547;SDS011;2286;51.570;7.090;2023-04-25T00:48:44;11.20;;;6.37;;
4547;SDS011;2286;51.570;7.090;2023-04-25T00:51:13;8.07;;;5.50;;
4547;SDS011;2286;51.570;7.090;2023-04-25T00:53:42;8.50;;;5.87;;
4547;SDS011;2286;51.570;7.090;2023-04-25T00:56:11;11.47;;;5.67;;
4547;SDS011;2286;51.570;7.090;2023-04-25T00:58:38;7.63;;;5.40;;
4547;SDS011;2286;51.570;7.090;2023-04-25T01:01:06;10.27;;;5.47;;
4547;SDS011;2286;51.570;7.090;2023-04-25T01:03:34;8.43;;;5.60;;
4547;SDS011;2286;51.570;7.090;2023-04-25T01:06:05;10.17;;;5.60;;
4547;SDS011;2286;51.570;7.090;2023-04-25T01:08:33;11.73;;;5.80;;
4547;SDS011;2286;51.570;7.090;2023-04-25T01:11:00;14.17;;;5.40;;
4547;SDS011;2286;51.570;7.090;2023-04-25T01:13:29;6.43;;;5.20;;
4547;SDS011;2286;51.570;7.090;2023-04-25T01:15:57;10.60;;;5.40;;
4547;SDS011;2286;51.570;7.090;2023-04-25T01:18:24;6.97;;;5.10;;
4547;SDS011;2286;51.570;7.090;2023-04-25T01:20:51;13.80;;;5.57;;
4547;SDS011;2286;51.570;7.090;2023-04-25T01:23:20;11.60;;;5.80;;
4547;SDS011;2286;51.570;7.090;2023-04-25T01:25:48;7.40;;;5.10;;
4547;SDS011;2286;51.570;7.090;2023-04-25T01:28:15;10.60;;;6.47;;
4547;SDS011;2286;51.570;7.090;2023-04-25T01:30:42;10.90;;;5.90;;
4547;SDS011;2286;51.570;7.090;2023-04-25T01:33:09;9.73;;;5.70;;
4547;SDS011;2286;51.570;7.090;2023-04-25T01:35:37;14.40;;;7.17;;
4547;SDS011;2286;51.570;7.090;2023-04-25T01:38:05;14.00;;;7.17;;
4547;SDS011;2286;51.570;7.090;2023-04-25T01:40:33;11.07;;;6.53;;
4547;SDS011;2286;51.570;7.090;2023-04-25T01:43:01;13.50;;;7.10;;
4547;SDS011;2286;51.570;7.090;2023-04-25T01:45:28;14.53;;;7.17;;
4547;SDS011;2286;51.570;7.090;2023-04-25T01:47:55;16.60;;;8.00;;
4547;SDS011;2286;51.570;7.090;2023-04-25T01:50:24;12.63;;;7.50;;
4547;SDS011;2286;51.570;7.090;2023-04-25T01:52:51;9.67;;;7.77;;
4547;SDS011;2286;51.570;7.090;2023-04-25T01:55:19;12.40;;;7.93;;
4547;SDS011;2286;51.570;7.090;2023-04-25T01:57:47;14.23;;;8.27;;
4547;SDS011;2286;51.570;7.090;2023-04-25T02:00:14;11.70;;;8.37;;
4547;SDS011;2286;51.570;7.090;2023-04-25T02:02:41;14.13;;;8.83;;
4547;SDS011;2286;51.570;7.090;2023-04-25T02:05:08;11.90;;;8.10;;
4547;SDS011;2286;51.570;7.090;2023-04-25T02:07:35;13.63;;;8.20;;
4547;SDS011;2286;51.570;7.090;2023-04-25T02:10:02;19.43;;;8.67;;
4547;SDS011;2286;51.570;7.090;2023-04-25T02:12:30;15.13;;;8.90;;
4547;SDS011;2286;51.570;7.090;2023-04-25T02:14:59;10.90;;;7.77;;
4547;SDS011;2286;51.570;7.090;2023-04-25T02:17:25;12.23;;;8.90;;
4547;SDS011;2286;51.570;7.090;2023-04-25T02:19:52;14.50;;;8.17;;
4547;SDS011;2286;51.570;7.090;2023-04-25T02:22:19;18.57;;;10.60;;
4547;SDS011;2286;51.570;7.090;2023-04-25T02:24:46;14.50;;;10.43;;
4547;SDS011;2286;51.570;7.090;2023-04-25T02:27:13;19.70;;;12.30;;
4547;SDS011;2286;51.570;7.090;2023-04-25T02:29:40;15.23;;;10.30;;
4547;SDS011;2286;51.570;7.090;2023-04-25T02:32:08;19.53;;;10.33;;
4547;SDS011;2286;51.570;7.090;2023-04-25T02:34:35;15.60;;;10.73;;
4547;SDS011;2286;51.570;7.090;2023-04-25T02:37:02;16.80;;;11.40;;
4547;SDS011;2286;51.570;7.090;2023-04-25T02:39:29;18.97;;;10.90;;
4547;SDS011;2286;51.570;7.090;2023-04-25T02:41:56;18.70;;;11.50;;
4547;SDS011;2286;51.570;7.090;2023-04-25T02:44:23;16.20;;;11.67;;
4547;SDS011;2286;51.570;7.090;2023-04-25T02:46:50;16.90;;;10.30;;
4547;SDS011;2286;51.570;7.090;2023-04-25T02:49:18;14.33;;;12.30;;
4547;SDS011;2286;51.570;7.090;2023-04-25T02:51:45;16.87;;;12.10;;
4547;SDS011;2286;51.570;7.090;2023-04-25T02:54:12;18.37;;;11.10;;
4547;SDS011;2286;51.570;7.090;2023-04-25T02:56:38;19.80;;;12.37;;
4547;SDS011;2286;51.570;7.090;2023-04-25T02:59:05;16.60;;;12.00;;
4547;SDS011;2286;51.570;7.090;2023-04-25T03:01:32;19.60;;;13.10;;
4547;SDS011;2286;51.570;7.090;2023-04-25T03:03:59;21.73;;;13.60;;
4547;SDS011;2286;51.570;7.090;2023-04-25T03:06:27;19.47;;;14.07;;
4547;SDS011;2286;51.570;7.090;2023-04-25T03:08:54;18.33;;;15.60;;
4547;SDS011;2286;51.570;7.090;2023-04-25T03:11:21;19.10;;;14.50;;
4547;SDS011;2286;51.570;7.090;2023-04-25T03:13:47;24.13;;;15.60;;
4547;SDS011;2286;51.570;7.090;2023-04-25T03:16:14;19.97;;;15.27;;
4547;SDS011;2286;51.570;7.090;2023-04-25T03:18:41;24.27;;;16.57;;
4547;SDS011;2286;51.570;7.090;2023-04-25T03:21:08;24.63;;;16.30;;
4547;SDS011;2286;51.570;7.090;2023-04-25T03:23:36;22.57;;;16.67;;
4547;SDS011;2286;51.570;7.090;2023-04-25T03:26:03;20.13;;;13.60;;
4547;SDS011;2286;51.570;7.090;2023-04-25T03:28:30;23.23;;;12.60;;
4547;SDS011;2286;51.570;7.090;2023-04-25T03:30:56;21.27;;;12.00;;
4547;SDS011;2286;51.570;7.090;2023-04-25T03:33:23;16.77;;;10.30;;
4547;SDS011;2286;51.570;7.090;2023-04-25T03:35:50;21.43;;;10.97;;
4547;SDS011;2286;51.570;7.090;2023-04-25T03:38:17;19.60;;;11.20;;
4547;SDS011;2286;51.570;7.090;2023-04-25T03:40:45;18.13;;;12.00;;
4547;SDS011;2286;51.570;7.090;2023-04-25T03:43:12;11.60;;;8.40;;
4547;SDS011;2286;51.570;7.090;2023-04-25T03:45:38;10.73;;;6.27;;
4547;SDS011;2286;51.570;7.090;2023-04-25T03:48:05;13.23;;;4.87;;
4547;SDS011;2286;51.570;7.090;2023-04-25T03:50:32;14.10;;;4.00;;
4547;SDS011;2286;51.570;7.090;2023-04-25T03:52:59;9.00;;;3.73;;
4547;SDS011;2286;51.570;7.090;2023-04-25T03:55:26;11.10;;;4.20;;
4547;SDS011;2286;51.570;7.090;2023-04-25T03:57:54;8.60;;;4.30;;
4547;SDS011;2286;51.570;7.090;2023-04-25T04:00:21;7.20;;;3.38;;
4547;SDS011;2286;51.570;7.090;2023-04-25T04:02:47;11.77;;;3.50;;
4547;SDS011;2286;51.570;7.090;2023-04-25T04:05:14;12.20;;;3.40;;
4547;SDS011;2286;51.570;7.090;2023-04-25T04:07:41;11.47;;;3.47;;
4547;SDS011;2286;51.570;7.090;2023-04-25T04:10:08;9.93;;;3.40;;
4547;SDS011;2286;51.570;7.090;2023-04-25T04:12:35;11.00;;;4.60;;
4547;SDS011;2286;51.570;7.090;2023-04-25T04:15:04;9.37;;;3.97;;
4547;SDS011;2286;51.570;7.090;2023-04-25T04:17:32;11.83;;;3.17;;
4547;SDS011;2286;51.570;7.090;2023-04-25T04:19:59;10.50;;;3.00;;
4547;SDS011;2286;51.570;7.090;2023-04-25T04:22:26;7.87;;;3.27;;
4547;SDS011;2286;51.570;7.090;2023-04-25T04:24:53;9.97;;;4.40;;
4547;SDS011;2286;51.570;7.090;2023-04-25T04:27:22;9.73;;;3.47;;
4547;SDS011;2286;51.570;7.090;2023-04-25T04:29:49;10.53;;;3.43;;
4547;SDS011;2286;51.570;7.090;2023-04-25T04:32:18;9.20;;;3.80;;
4547;SDS011;2286;51.570;7.090;2023-04-25T04:34:45;13.23;;;4.60;;
4547;SDS011;2286;51.570;7.090;2023-04-25T04:37:13;13.83;;;4.30;;
4547;SDS011;2286;51.570;7.090;2023-04-25T04:39:40;7.70;;;3.87;;
4547;SDS011;2286;51.570;7.090;2023-04-25T04:42:07;14.70;;;5.37;;
4547;SDS011;2286;51.570;7.090;2023-04-25T04:44:36;9.60;;;3.97;;
4547;SDS011;2286;51.570;7.090;2023-04-25T04:47:03;10.27;;;4.20;;
4547;SDS011;2286;51.570;7.090;2023-04-25T04:49:32;11.93;;;3.93;;
4547;SDS011;2286;51.570;7.090;2023-04-25T04:51:59;9.53;;;3.93;;
4547;SDS011;2286;51.570;7.090;2023-04-25T04:54:26;6.57;;;4.43;;
4547;SDS011;2286;51.570;7.090;2023-04-25T04:56:53;10.40;;;4.37;;
4547;SDS011;2286;51.570;7.090;2023-04-25T04:59:19;14.17;;;4.30;;
4547;SDS011;2286;51.570;7.090;2023-04-25T05:01:46;11.97;;;5.30;;
4547;SDS011;2286;51.570;7.090;2023-04-25T05:04:14;9.80;;;5.00;;
4547;SDS011;2286;51.570;7.090;2023-04-25T05:06:42;11.00;;;6.03;;
4547;SDS011;2286;51.570;7.090;2023-04-25T05:09:10;11.57;;;7.50;;
4547;SDS011;2286;51.570;7.090;2023-04-25T05:11:36;13.37;;;7.97;;
4547;SDS011;2286;51.570;7.090;2023-04-25T05:14:03;14.10;;;8.90;;
4547;SDS011;2286;51.570;7.090;2023-04-25T05:16:30;16.40;;;9.00;;
4547;SDS011;2286;51.570;7.090;2023-04-25T05:18:57;14.30;;;9.57;;
4547;SDS011;2286;51.570;7.090;2023-04-25T05:21:23;17.00;;;10.60;;
4547;SDS011;2286;51.570;7.090;2023-04-25T05:23:51;13.13;;;9.37;;
4547;SDS011;2286;51.570;7.090;2023-04-25T05:26:19;16.30;;;9.87;;
4547;SDS011;2286;51.570;7.090;2023-04-25T05:28:46;23.63;;;9.60;;
4547;SDS011;2286;51.570;7.090;2023-04-25T05:31:13;15.63;;;8.93;;
4547;SDS011;2286;51.570;7.090;2023-04-25T05:33:40;22.80;;;10.40;;
4547;SDS011;2286;51.570;7.090;2023-04-25T05:36:07;20.13;;;9.37;;
4547;SDS011;2286;51.570;7.090;2023-04-25T05:38:34;16.87;;;8.87;;
4547;SDS011;2286;51.570;7.090;2023-04-25T05:41:02;19.57;;;8.43;;
4547;SDS011;2286;51.570;7.090;2023-04-25T05:43:29;16.70;;;6.83;;
4547;SDS011;2286;51.570;7.090;2023-04-25T05:45:56;14.17;;;7.17;;
4547;SDS011;2286;51.570;7.090;2023-04-25T05:48:22;13.80;;;6.87;;
4547;SDS011;2286;51.570;7.090;2023-04-25T05:50:49;16.33;;;7.40;;
4547;SDS011;2286;51.570;7.090;2023-04-25T05:53:16;15.87;;;7.97;;
4547;SDS011;2286;51.570;7.090;2023-04-25T05:55:43;16.20;;;7.40;;
4547;SDS011;2286;51.570;7.090;2023-04-25T05:58:11;19.93;;;7.43;;
4547;SDS011;2286;51.570;7.090;2023-04-25T06:00:38;16.20;;;6.77;;
4547;SDS011;2286;51.570;7.090;2023-04-25T06:03:06;13.70;;;6.23;;
4547;SDS011;2286;51.570;7.090;2023-04-25T06:05:34;18.50;;;8.00;;
4547;SDS011;2286;51.570;7.090;2023-04-25T06:08:01;13.00;;;7.33;;
4547;SDS011;2286;51.570;7.090;2023-04-25T06:10:28;19.20;;;7.33;;
4547;SDS011;2286;51.570;7.090;2023-04-25T06:12:55;16.07;;;7.03;;
4547;SDS011;2286;51.570;7.090;2023-04-25T06:15:23;10.80;;;5.90;;
4547;SDS011;2286;51.570;7.090;2023-04-25T06:17:50;12.90;;;6.27;;
4547;SDS011;2286;51.570;7.090;2023-04-25T06:20:16;14.30;;;6.57;;
4547;SDS011;2286;51.570;7.090;2023-04-25T06:22:47;12.07;;;6.47;;
4547;SDS011;2286;51.570;7.090;2023-04-25T06:25:14;16.40;;;6.00;;
4547;SDS011;2286;51.570;7.090;2023-04-25T06:27:41;10.80;;;5.77;;
4547;SDS011;2286;51.570;7.090;2023-04-25T06:30:09;18.90;;;4.70;;
4547;SDS011;2286;51.570;7.090;2023-04-25T06:32:38;9.97;;;3.90;;
4547;SDS011;2286;51.570;7.090;2023-04-25T06:35:05;14.23;;;4.90;;
4547;SDS011;2286;51.570;7.090;2023-04-25T06:37:33;12.60;;;5.17;;
4547;SDS011;2286;51.570;7.090;2023-04-25T06:39:59;11.00;;;5.23;;
4547;SDS011;2286;51.570;7.090;2023-04-25T06:42:27;14.60;;;6.50;;
4547;SDS011;2286;51.570;7.090;2023-04-25T06:44:54;13.83;;;6.30;;
4547;SDS011;2286;51.570;7.090;2023-04-25T06:47:20;10.97;;;4.97;;
4547;SDS011;2286;51.570;7.090;2023-04-25T06:49:49;13.03;;;5.33;;
4547;SDS011;2286;51.570;7.090;2023-04-25T06:52:16;15.33;;;5.53;;
4547;SDS011;2286;51.570;7.090;2023-04-25T06:54:43;12.93;;;6.40;;
4547;SDS011;2286;51.570;7.090;2023-04-25T06:57:10;14.70;;;5.83;;
4547;SDS011;2286;51.570;7.090;2023-04-25T06:59:37;13.60;;;5.37;;
4547;SDS011;2286;51.570;7.090;2023-04-25T07:02:04;13.50;;;6.37;;
4547;SDS011;2286;51.570;7.090;2023-04-25T07:04:31;11.20;;;5.00;;
4547;SDS011;2286;51.570;7.090;2023-04-25T07:06:59;10.13;;;5.03;;
4547;SDS011;2286;51.570;7.090;2023-04-25T07:09:27;14.93;;;5.10;;
4547;SDS011;2286;51.570;7.090;2023-04-25T07:11:54;15.77;;;6.00;;
4547;SDS011;2286;51.570;7.090;2023-04-25T07:14:21;9.80;;;4.80;;
4547;SDS011;2286;51.570;7.090;2023-04-25T07:16:49;10.90;;;4.13;;
4547;SDS011;2286;51.570;7.090;2023-04-25T07:19:15;12.70;;;3.50;;
4547;SDS011;2286;51.570;7.090;2023-04-25T07:21:42;11.27;;;4.20;;
4547;SDS011;2286;51.570;7.090;2023-04-25T07:24:10;12.13;;;3.57;;
4547;SDS011;2286;51.570;7.090;2023-04-25T07:26:37;5.43;;;2.80;;
4547;SDS011;2286;51.570;7.090;2023-04-25T07:29:04;11.37;;;3.17;;
4547;SDS011;2286;51.570;7.090;2023-04-25T07:31:31;7.97;;;2.63;;
4547;SDS011;2286;51.570;7.090;2023-04-25T07:33:57;6.97;;;2.63;;
4547;SDS011;2286;51.570;7.090;2023-04-25T07:36:24;9.70;;;3.57;;
4547;SDS011;2286;51.570;7.090;2023-04-25T07:38:51;6.63;;;3.07;;
4547;SDS011;2286;51.570;7.090;2023-04-25T07:41:19;8.27;;;2.60;;
4547;SDS011;2286;51.570;7.090;2023-04-25T07:43:46;10.80;;;3.20;;
4547;SDS011;2286;51.570;7.090;2023-04-25T07:46:13;9.27;;;3.60;;
4547;SDS011;2286;51.570;7.090;2023-04-25T07:48:40;13.67;;;3.00;;
4547;SDS011;2286;51.570;7.090;2023-04-25T07:51:06;7.30;;;2.50;;
4547;SDS011;2286;51.570;7.090;2023-04-25T07:53:33;8.50;;;3.00;;
4547;SDS011;2286;51.570;7.090;2023-04-25T07:56:02;7.17;;;2.67;;
4547;SDS011;2286;51.570;7.090;2023-04-25T07:58:31;10.13;;;3.20;;
4547;SDS011;2286;51.570;7.090;2023-04-25T08:00:57;8.67;;;3.17;;
4547;SDS011;2286;51.570;7.090;2023-04-25T08:03:24;8.10;;;3.23;;
4547;SDS011;2286;51.570;7.090;2023-04-25T08:05:51;9.03;;;3.47;;
4547;SDS011;2286;51.570;7.090;2023-04-25T08:08:18;8.03;;;3.00;;
4547;SDS011;2286;51.570;7.090;2023-04-25T08:10:44;8.90;;;2.97;;
4547;SDS011;2286;51.570;7.090;2023-04-25T08:13:13;13.67;;;3.63;;
4547;SDS011;2286;51.570;7.090;2023-04-25T08:15:41;9.40;;;2.93;;
4547;SDS011;2286;51.570;7.090;2023-04-25T08:18:08;10.73;;;3.07;;
4547;SDS011;2286;51.570;7.090;2023-04-25T08:20:35;7.33;;;3.03;;
4547;SDS011;2286;51.570;7.090;2023-04-25T08:23:01;8.67;;;2.90;;
4547;SDS011;2286;51.570;7.090;2023-04-25T08:25:28;5.47;;;2.57;;
4547;SDS011;2286;51.570;7.090;2023-04-25T08:27:55;8.10;;;2.87;;
4547;SDS011;2286;51.570;7.090;2023-04-25T08:30:22;8.90;;;2.93;;
4547;SDS011;2286;51.570;7.090;2023-04-25T08:32:50;6.83;;;2.17;;
4547;SDS011;2286;51.570;7.090;2023-04-25T08:35:17;7.60;;;3.23;;
4547;SDS011;2286;51.570;7.090;2023-04-25T08:37:44;8.80;;;2.90;;
4547;SDS011;2286;51.570;7.090;2023-04-25T08:40:11;8.53;;;2.93;;
4547;SDS011;2286;51.570;7.090;2023-04-25T08:42:41;14.90;;;3.80;;
4547;SDS011;2286;51.570;7.090;2023-04-25T08:45:08;10.13;;;3.00;;
4547;SDS011;2286;51.570;7.090;2023-04-25T08:47:36;6.33;;;3.20;;
4547;SDS011;2286;51.570;7.090;2023-04-25T08:50:06;11.80;;;3.40;;
4547;SDS011;2286;51.570;7.090;2023-04-25T08:52:35;8.00;;;3.20;;
4547;SDS011;2286;51.570;7.090;2023-04-25T08:55:04;12.83;;;4.03;;
4547;SDS011;2286;51.570;7.090;2023-04-25T08:57:33;11.27;;;3.30;;
4547;SDS011;2286;51.570;7.090;2023-04-25T09:00:00;4.87;;;1.97;;
4547;SDS011;2286;51.570;7.090;2023-04-25T09:02:29;5.87;;;2.30;;
4547;SDS011;2286;51.570;7.090;2023-04-25T09:04:56;8.77;;;2.60;;
4547;SDS011;2286;51.570;7.090;2023-04-25T09:07:24;9.63;;;2.80;;
4547;SDS011;2286;51.570;7.090;2023-04-25T09:09:51;10.10;;;2.80;;
4547;SDS011;2286;51.570;7.090;2023-04-25T09:12:18;7.87;;;1.93;;
4547;SDS011;2286;51.570;7.090;2023-04-25T09:14:55;5.87;;;2.00;;
4547;SDS011;2286;51.570;7.090;2023-04-25T09:17:29;6.40;;;2.17;;
4547;SDS011;2286;51.570;7.090;2023-04-25T09:19:55;5.80;;;2.30;;
4547;SDS011;2286;51.570;7.090;2023-04-25T09:22:33;4.77;;;2.10;;
4547;SDS011;2286;51.570;7.090;2023-04-25T09:25:02;6.13;;;2.57;;
4547;SDS011;2286;51.570;7.090;2023-04-25T09:27:29;6.80;;;2.07;;
4547;SDS011;2286;51.570;7.090;2023-04-25T09:29:57;8.63;;;2.60;;
4547;SDS011;2286;51.570;7.090;2023-04-25T09:32:25;4.30;;;1.57;;
4547;SDS011;2286;51.570;7.090;2023-04-25T09:34:53;11.23;;;1.83;;
4547;SDS011;2286;51.570;7.090;2023-04-25T09:37:21;4.77;;;2.00;;
4547;SDS011;2286;51.570;7.090;2023-04-25T09:39:52;5.10;;;1.70;;
4547;SDS011;2286;51.570;7.090;2023-04-25T09:42:21;3.73;;;1.80;;
4547;SDS011;2286;51.570;7.090;2023-04-25T09:44:49;8.07;;;1.80;;
4547;SDS011;2286;51.570;7.090;2023-04-25T09:47:18;7.97;;;1.80;;
4547;SDS011;2286;51.570;7.090;2023-04-25T09:49:46;3.10;;;1.97;;
4547;SDS011;2286;51.570;7.090;2023-04-25T09:52:14;4.70;;;2.17;;
4547;SDS011;2286;51.570;7.090;2023-04-25T09:54:42;6.07;;;2.23;;
4547;SDS011;2286;51.570;7.090;2023-04-25T09:57:12;3.67;;;1.30;;
4547;SDS011;2286;51.570;7.090;2023-04-25T09:59:42;3.60;;;1.53;;
4547;SDS011;2286;51.570;7.090;2023-04-25T10:02:11;2.63;;;1.40;;
4547;SDS011;2286;51.570;7.090;2023-04-25T10:04:38;2.77;;;1.60;;
4547;SDS011;2286;51.570;7.090;2023-04-25T10:07:07;4.93;;;1.70;;
4547;SDS011;2286;51.570;7.090;2023-04-25T10:09:36;3.30;;;1.30;;
4547;SDS011;2286;51.570;7.090;2023-04-25T10:12:04;4.10;;;1.70;;
4547;SDS011;2286;51.570;7.090;2023-04-25T10:14:33;3.57;;;1.60;;
4547;SDS011;2286;51.570;7.090;2023-04-25T10:17:01;4.60;;;1.73;;
4547;SDS011;2286;51.570;7.090;2023-04-25T10:19:28;5.00;;;2.03;;
4547;SDS011;2286;51.570;7.090;2023-04-25T10:22:01;2.83;;;1.47;;
4547;SDS011;2286;51.570;7.090;2023-04-25T10:24:32;5.97;;;2.03;;
4547;SDS011;2286;51.570;7.090;2023-04-25T10:26:59;3.20;;;1.60;;
4547;SDS011;2286;51.570;7.090;2023-04-25T10:29:27;7.93;;;3.63;;
4547;SDS011;2286;51.570;7.090;2023-04-25T10:31:55;8.97;;;2.70;;
4547;SDS011;2286;51.570;7.090;2023-04-25T10:34:37;7.10;;;2.10;;
4547;SDS011;2286;51.570;7.090;2023-04-25T10:37:05;7.87;;;2.17;;
4547;SDS011;2286;51.570;7.090;2023-04-25T10:39:35;4.63;;;1.77;;
4547;SDS011;2286;51.570;7.090;2023-04-25T10:42:03;5.03;;;2.30;;
4547;SDS011;2286;51.570;7.090;2023-04-25T10:44:31;7.50;;;2.00;;
4547;SDS011;2286;51.570;7.090;2023-04-25T10:47:00;5.20;;;1.70;;
4547;SDS011;2286;51.570;7.090;2023-04-25T10:49:28;7.90;;;1.63;;
4547;SDS011;2286;51.570;7.090;2023-04-25T10:54:51;5.33;;;1.83;;
4547;SDS011;2286;51.570;7.090;2023-04-25T10:57:31;5.10;;;1.90;;
4547;SDS011;2286;51.570;7.090;2023-04-25T11:00:05;2.13;;;1.50;;
4547;SDS011;2286;51.570;7.090;2023-04-25T11:02:44;4.70;;;2.00;;
4547;SDS011;2286;51.570;7.090;2023-04-25T11:05:16;5.27;;;1.87;;
4547;SDS011;2286;51.570;7.090;2023-04-25T11:07:55;5.23;;;1.97;;
4547;SDS011;2286;51.570;7.090;2023-04-25T11:10:25;7.63;;;1.90;;
4547;SDS011;2286;51.570;7.090;2023-04-25T11:12:52;4.03;;;2.30;;
4547;SDS011;2286;51.570;7.090;2023-04-25T11:15:19;5.30;;;1.70;;
4547;SDS011;2286;51.570;7.090;2023-04-25T11:17:47;3.40;;;1.63;;
4547;SDS011;2286;51.570;7.090;2023-04-25T11:20:15;3.00;;;1.60;;
4547;SDS011;2286;51.570;7.090;2023-04-25T11:22:45;6.87;;;2.40;;
4547;SDS011;2286;51.570;7.090;2023-04-25T11:25:13;5.03;;;1.60;;
4547;SDS011;2286;51.570;7.090;2023-04-25T11:27:51;2.50;;;1.70;;
4547;SDS011;2286;51.570;7.090;2023-04-25T11:30:19;2.93;;;1.20;;
4547;SDS011;2286;51.570;7.090;2023-04-25T11:32:49;3.63;;;1.50;;
4547;SDS011;2286;51.570;7.090;2023-04-25T11:35:17;3.77;;;1.23;;
4547;SDS011;2286;51.570;7.090;2023-04-25T11:37:44;1.93;;;1.73;;
4547;SDS011;2286;51.570;7.090;2023-04-25T11:40:11;3.80;;;1.40;;
4547;SDS011;2286;51.570;7.090;2023-04-25T11:42:38;5.50;;;1.30;;
4547;SDS011;2286;51.570;7.090;2023-04-25T11:45:05;6.63;;;1.40;;
4547;SDS011;2286;51.570;7.090;2023-04-25T11:47:33;2.87;;;1.60;;
4547;SDS011;2286;51.570;7.090;2023-04-25T11:50:02;4.40;;;1.63;;
4547;SDS011;2286;51.570;7.090;2023-04-25T11:52:37;1.93;;;0.93;;
4547;SDS011;2286;51.570;7.090;2023-04-25T11:55:06;4.00;;;1.20;;
4547;SDS011;2286;51.570;7.090;2023-04-25T11:57:34;3.93;;;1.10;;
4547;SDS011;2286;51.570;7.090;2023-04-25T12:00:10;2.33;;;1.10;;
4547;SDS011;2286;51.570;7.090;2023-04-25T12:02:40;2.70;;;1.10;;
4547;SDS011;2286;51.570;7.090;2023-04-25T12:05:09;2.13;;;1.30;;
4547;SDS011;2286;51.570;7.090;2023-04-25T12:07:39;1.73;;;1.20;;
4547;SDS011;2286;51.570;7.090;2023-04-25T12:10:08;5.20;;;1.77;;
4547;SDS011;2286;51.570;7.090;2023-04-25T12:12:36;4.13;;;1.10;;
4547;SDS011;2286;51.570;7.090;2023-04-25T12:15:08;3.80;;;1.60;;
4547;SDS011;2286;51.570;7.090;2023-04-25T12:17:40;4.33;;;1.30;;
4547;SDS011;2286;51.570;7.090;2023-04-25T12:20:10;1.90;;;1.33;;
4547;SDS011;2286;51.570;7.090;2023-04-25T12:22:40;4.30;;;1.50;;
4547;SDS011;2286;51.570;7.090;2023-04-25T12:25:09;4.50;;;1.60;;
4547;SDS011;2286;51.570;7.090;2023-04-25T12:27:37;3.97;;;1.20;;
4547;SDS011;2286;51.570;7.090;2023-04-25T12:30:05;5.73;;;1.60;;
4547;SDS011;2286;51.570;7.090;2023-04-25T12:32:33;4.00;;;1.70;;
4547;SDS011;2286;51.570;7.090;2023-04-25T12:35:00;2.50;;;1.40;;
4547;SDS011;2286;51.570;7.090;2023-04-25T12:37:29;2.40;;;1.00;;
4547;SDS011;2286;51.570;7.090;2023-04-25T12:39:56;1.70;;;1.07;;
4547;SDS011;2286;51.570;7.090;2023-04-25T12:42:23;2.40;;;2.07;;
4547;SDS011;2286;51.570;7.090;2023-04-25T12:44:50;1.60;;;1.20;;
4547;SDS011;2286;51.570;7.090;2023-04-25T12:47:17;2.23;;;1.40;;
4547;SDS011;2286;51.570;7.090;2023-04-25T12:49:43;3.27;;;1.30;;
4547;SDS011;2286;51.570;7.090;2023-04-25T12:52:10;2.00;;;1.33;;
4547;SDS011;2286;51.570;7.090;2023-04-25T12:54:38;2.23;;;1.40;;
4547;SDS011;2286;51.570;7.090;2023-04-25T12:57:05;1.70;;;1.00;;
4547;SDS011;2286;51.570;7.090;2023-04-25T12:59:32;4.00;;;1.50;;
4547;SDS011;2286;51.570;7.090;2023-04-25T13:01:59;4.23;;;1.40;;
4547;SDS011;2286;51.570;7.090;2023-04-25T13:04:26;3.10;;;1.30;;
4547;SDS011;2286;51.570;7.090;2023-04-25T13:06:53;5.20;;;1.23;;
4547;SDS011;2286;51.570;7.090;2023-04-25T13:09:20;3.80;;;1.63;;
4547;SDS011;2286;51.570;7.090;2023-04-25T13:11:48;3.20;;;1.83;;
4547;SDS011;2286;51.570;7.090;2023-04-25T13:14:15;4.20;;;2.00;;
4547;SDS011;2286;51.570;7.090;2023-04-25T13:16:41;3.87;;;1.50;;
4547;SDS011;2286;51.570;7.090;2023-04-25T13:19:08;5.20;;;1.37;;
4547;SDS011;2286;51.570;7.090;2023-04-25T13:21:36;2.27;;;1.30;;
4547;SDS011;2286;51.570;7.090;2023-04-25T13:24:03;5.10;;;1.40;;
4547;SDS011;2286;51.570;7.090;2023-04-25T13:26:30;4.90;;;2.10;;
4547;SDS011;2286;51.570;7.090;2023-04-25T13:28:58;3.73;;;1.93;;
4547;SDS011;2286;51.570;7.090;2023-04-25T13:31:27;7.07;;;2.20;;
4547;SDS011;2286;51.570;7.090;2023-04-25T13:33:55;3.93;;;1.97;;
4547;SDS011;2286;51.570;7.090;2023-04-25T13:36:21;4.17;;;1.57;;
4547;SDS011;2286;51.570;7.090;2023-04-25T13:38:48;4.33;;;1.60;;
4547;SDS011;2286;51.570;7.090;2023-04-25T13:41:15;5.90;;;1.90;;
4547;SDS011;2286;51.570;7.090;2023-04-25T13:43:43;2.40;;;1.30;;
4547;SDS011;2286;51.570;7.090;2023-04-25T13:46:13;2.33;;;1.30;;
4547;SDS011;2286;51.570;7.090;2023-04-25T13:48:41;3.33;;;1.20;;
4547;SDS011;2286;51.570;7.090;2023-04-25T13:51:12;3.70;;;1.60;;
4547;SDS011;2286;51.570;7.090;2023-04-25T13:53:40;1.60;;;1.00;;
4547;SDS011;2286;51.570;7.090;2023-04-25T13:56:07;4.33;;;1.57;;
4547;SDS011;2286;51.570;7.090;2023-04-25T13:58:34;2.23;;;1.30;;
4547;SDS011;2286;51.570;7.090;2023-04-25T14:01:01;2.03;;;1.33;;
4547;SDS011;2286;51.570;7.090;2023-04-25T14:03:29;3.73;;;1.40;;
4547;SDS011;2286;51.570;7.090;2023-04-25T14:05:56;3.30;;;1.30;;
4547;SDS011;2286;51.570;7.090;2023-04-25T14:08:23;2.30;;;1.10;;
4547;SDS011;2286;51.570;7.090;2023-04-25T14:10:50;2.63;;;1.10;;
4547;SDS011;2286;51.570;7.090;2023-04-25T14:13:17;1.50;;;0.90;;
4547;SDS011;2286;51.570;7.090;2023-04-25T14:15:44;5.73;;;1.17;;
4547;SDS011;2286;51.570;7.090;2023-04-25T14:18:11;1.90;;;1.20;;
4547;SDS011;2286;51.570;7.090;2023-04-25T14:20:39;1.80;;;1.10;;
4547;SDS011;2286;51.570;7.090;2023-04-25T14:23:06;3.67;;;1.20;;
4547;SDS011;2286;51.570;7.090;2023-04-25T14:25:33;1.20;;;0.90;;
4547;SDS011;2286;51.570;7.090;2023-04-25T14:28:00;2.70;;;1.00;;
4547;SDS011;2286;51.570;7.090;2023-04-25T14:30:27;1.97;;;1.00;;
4547;SDS011;2286;51.570;7.090;2023-04-25T14:32:54;1.50;;;1.00;;
4547;SDS011;2286;51.570;7.090;2023-04-25T14:35:21;1.87;;;1.20;;
4547;SDS011;2286;51.570;7.090;2023-04-25T14:37:49;2.60;;;1.33;;
4547;SDS011;2286;51.570;7.090;2023-04-25T14:40:16;2.70;;;1.10;;
4547;SDS011;2286;51.570;7.090;2023-04-25T14:42:42;3.90;;;1.47;;
4547;SDS011;2286;51.570;7.090;2023-04-25T14:45:10;2.33;;;1.20;;
4547;SDS011;2286;51.570;7.090;2023-04-25T14:47:37;3.93;;;1.40;;
4547;SDS011;2286;51.570;7.090;2023-04-25T14:50:05;1.87;;;1.10;;
4547;SDS011;2286;51.570;7.090;2023-04-25T14:52:33;2.87;;;1.50;;
4547;SDS011;2286;51.570;7.090;2023-04-25T14:55:02;4.73;;;1.50;;
4547;SDS011;2286;51.570;7.090;2023-04-25T14:57:30;7.53;;;2.50;;
4547;SDS011;2286;51.570;7.090;2023-04-25T14:59:57;4.63;;;1.40;;
4547;SDS011;2286;51.570;7.090;2023-04-25T15:02:23;5.10;;;1.50;;
4547;SDS011;2286;51.570;7.090;2023-04-25T15:04:51;3.60;;;1.97;;
4547;SDS011;2286;51.570;7.090;2023-04-25T15:07:18;3.00;;;1.83;;
4547;SDS011;2286;51.570;7.090;2023-04-25T15:09:44;3.00;;;1.73;;
4547;SDS011;2286;51.570;7.090;2023-04-25T15:12:13;4.70;;;1.47;;
4547;SDS011;2286;51.570;7.090;2023-04-25T15:14:39;2.37;;;1.30;;